Terminal Aerodrome Forecast
Issued by NWS

Home | Current Version | Previous Version | Text Only | Print | Product List | Glossary Off
Versions: 1 2 3 4 5 6 7 8 9 10 11 12 13

000
FTUS43 KICT 201700
TAFSLN
TAF
KSLN 201720Z 2018/2118 17015G22KT P6SM SKC
     FM210200 17014KT P6SM SCT120
     FM211500 20017G25KT P6SM SCT120=

USA.gov is the U.S. government's official web portal to all federal, state and local government web resources and services.